Time;durP1;ratioP1;P1;durP2;ratioP2;P2;SDS_P1;SDS_P2;PMS_P1;PMS_P2;Temp;Humidity;BMP_temperature;BMP_pressure;BME280_temperature;BME280_humidity;BME280_pressure;Samples;Min_cycle;Max_cycle;Signal;HPM_P1;HPM_P2
2023/03/03 00:01:16;;;;;;;20.40;9.68;;;2.00;1.00;;;;;;5110330;28;20373;-69
2023/03/03 00:03:47;;;;;;;18.48;8.55;;;1.90;1.00;;;;;;5116243;28;20072;-69
2023/03/03 00:06:20;;;;;;;20.05;8.43;;;1.90;1.00;;;;;;5091388;28;20363;-67
2023/03/03 00:08:54;;;;;;;17.63;9.30;;;1.80;1.00;;;;;;5102202;28;20039;-68
2023/03/03 00:11:37;;;;;;;15.70;7.32;;;1.80;1.00;;;;;;5118782;28;20042;-67
2023/03/03 00:14:31;;;;;;;14.18;7.85;;;1.80;1.00;;;;;;5133251;28;20043;-66
2023/03/03 00:17:19;;;;;;;18.57;7.43;;;1.80;1.00;;;;;;5132956;28;20049;-66
2023/03/03 00:19:51;;;;;;;18.42;9.10;;;1.80;1.00;;;;;;5116459;28;20645;-67
2023/03/03 00:22:37;;;;;;;24.80;9.32;;;1.90;1.00;;;;;;5100775;28;20057;-68
2023/03/03 00:25:29;;;;;;;13.55;7.72;;;1.90;1.00;;;;;;5117592;28;20048;-68
2023/03/03 00:28:20;;;;;;;18.13;8.13;;;2.10;1.00;;;;;;5133264;28;20026;-68
2023/03/03 00:30:58;;;;;;;19.20;9.30;;;2.10;1.00;;;;;;5142644;28;20046;-68
2023/03/03 00:33:34;;;;;;;19.27;8.75;;;2.10;1.00;;;;;;5120450;28;20042;-67
2023/03/03 00:36:15;;;;;;;24.50;11.30;;;2.20;1.00;;;;;;5135906;28;20040;-67
2023/03/03 00:38:48;;;;;;;22.25;9.60;;;2.20;1.00;;;;;;5116482;28;20046;-67
2023/03/03 00:41:33;;;;;;;15.93;8.50;;;2.20;1.00;;;;;;5111629;28;20054;-67
2023/03/03 00:44:42;;;;;;;19.90;9.65;;;2.20;99.90;;;;;;5151906;28;20049;-68
2023/03/03 00:47:36;;;;;;;18.98;9.50;;;2.20;99.90;;;;;;5148678;28;20028;-69
2023/03/03 00:50:11;;;;;;;17.40;9.53;;;2.30;99.90;;;;;;5132265;28;20038;-69
2023/03/03 00:52:56;;;;;;;20.92;10.88;;;2.30;99.90;;;;;;5115577;28;20047;-68
2023/03/03 00:55:32;;;;;;;18.63;9.32;;;2.30;99.90;;;;;;5115653;28;20043;-68
2023/03/03 00:58:08;;;;;;;21.90;10.02;;;2.20;99.90;;;;;;5148146;28;20046;-67
2023/03/03 01:00:41;;;;;;;16.65;8.93;;;2.20;99.90;;;;;;5138263;28;20052;-68
2023/03/03 01:03:24;;;;;;;17.25;9.50;;;2.20;99.90;;;;;;5186115;23;20050;-68
2023/03/03 01:05:56;;;;;;;20.40;9.70;;;2.20;1.00;;;;;;5127188;28;20268;-69
2023/03/03 01:08:30;;;;;;;18.25;9.70;;;2.10;1.00;;;;;;5133606;28;20138;-67
2023/03/03 01:11:28;;;;;;;18.45;9.73;;;2.10;1.00;;;;;;5116638;28;20050;-69
2023/03/03 01:13:59;;;;;;;19.02;10.43;;;2.10;1.00;;;;;;5145251;28;20282;-67
2023/03/03 01:16:31;;;;;;;20.73;10.75;;;2.00;1.00;;;;;;5126494;28;20038;-66
2023/03/03 01:19:06;;;;;;;19.88;10.38;;;2.00;1.00;;;;;;5130787;28;20041;-66
2023/03/03 01:21:40;;;;;;;20.05;11.20;;;2.00;1.00;;;;;;5129460;28;20038;-68
2023/03/03 01:24:12;;;;;;;23.48;10.82;;;1.90;1.00;;;;;;5116147;28;20051;-68
2023/03/03 01:26:46;;;;;;;18.73;9.68;;;1.90;1.00;;;;;;5117355;28;20359;-66
2023/03/03 01:29:17;;;;;;;;;;;1.80;1.00;;;;;;5150256;28;20050;-66
2023/03/03 01:31:50;;;;;;;20.17;9.70;;;1.80;1.00;;;;;;5154865;28;19924;-67
2023/03/03 01:34:23;;;;;;;16.65;8.98;;;1.80;1.00;;;;;;5149684;28;20048;-67
2023/03/03 01:36:59;;;;;;;20.98;10.50;;;1.70;1.00;;;;;;5149360;28;20076;-66
2023/03/03 01:39:31;;;;;;;22.50;10.40;;;1.70;1.00;;;;;;5132255;28;20034;-69
2023/03/03 01:42:05;;;;;;;21.75;10.45;;;1.70;1.00;;;;;;5141100;28;20208;-68
2023/03/03 01:44:36;;;;;;;;;;;1.70;1.00;;;;;;5113483;28;20050;-68
2023/03/03 01:47:21;;;;;;;20.75;9.73;;;1.70;1.00;;;;;;5127381;28;19922;-67
2023/03/03 01:50:04;;;;;;;23.27;10.48;;;1.70;1.00;;;;;;5133448;28;20347;-68
2023/03/03 01:52:44;;;;;;;21.70;10.77;;;1.70;1.00;;;;;;5116820;28;20341;-65
2023/03/03 01:55:23;;;;;;;21.10;10.80;;;1.60;1.00;;;;;;5133584;28;20038;-68
2023/03/03 01:58:02;;;;;;;22.75;10.55;;;1.50;1.00;;;;;;5119574;28;20039;-65
2023/03/03 02:00:37;;;;;;;19.90;10.27;;;1.30;1.00;;;;;;5146043;28;20064;-69
2023/03/03 02:03:18;;;;;;;22.17;10.27;;;1.20;1.00;;;;;;5138825;28;20050;-67
2023/03/03 02:05:58;;;;;;;22.83;11.13;;;1.10;1.00;;;;;;5128880;28;20061;-68
2023/03/03 02:08:51;;;;;;;23.35;10.25;;;1.10;1.00;;;;;;5115042;28;20311;-68
2023/03/03 02:11:23;;;;;;;21.45;10.65;;;1.10;1.00;;;;;;5132305;28;20046;-66
2023/03/03 02:13:58;;;;;;;18.00;10.07;;;1.20;1.00;;;;;;5117931;28;20061;-68
2023/03/03 02:16:30;;;;;;;25.15;12.80;;;1.20;1.00;;;;;;5100283;28;20230;-69
2023/03/03 02:19:04;;;;;;;21.15;10.50;;;1.30;1.00;;;;;;5132932;28;20049;-69
2023/03/03 02:21:38;;;;;;;;;;;1.40;1.00;;;;;;5133008;28;20045;-68
2023/03/03 02:24:35;;;;;;;21.58;10.50;;;1.60;1.00;;;;;;5099510;28;19923;-68
2023/03/03 02:27:10;;;;;;;25.65;11.00;;;1.80;1.00;;;;;;5149920;28;20038;-66
2023/03/03 02:29:41;;;;;;;20.73;10.63;;;1.90;1.00;;;;;;5124337;28;20059;-68
2023/03/03 02:32:13;;;;;;;25.00;11.25;;;2.10;1.00;;;;;;5102970;28;20328;-66
2023/03/03 02:34:51;;;;;;;24.13;10.57;;;2.20;1.00;;;;;;5114751;28;20047;-68
2023/03/03 02:37:24;;;;;;;26.33;11.60;;;2.30;1.00;;;;;;5082831;29;20055;-68
2023/03/03 02:39:55;;;;;;;22.83;11.40;;;2.50;1.00;;;;;;5117731;28;20035;-68
2023/03/03 02:42:31;;;;;;;21.00;11.23;;;2.60;1.00;;;;;;5144469;28;20035;-66
2023/03/03 02:45:07;;;;;;;22.70;11.85;;;2.70;1.00;;;;;;5132707;28;20046;-69
2023/03/03 02:47:40;;;;;;;25.02;12.23;;;2.80;1.00;;;;;;5131815;28;20027;-65
2023/03/03 02:50:26;;;;;;;22.10;12.00;;;2.80;1.00;;;;;;5146276;28;20050;-67
2023/03/03 02:53:00;;;;;;;24.42;11.82;;;2.80;99.90;;;;;;5143490;28;20201;-68
2023/03/03 02:55:32;;;;;;;20.33;11.65;;;2.80;99.90;;;;;;5089583;29;20505;-67
2023/03/03 02:58:04;;;;;;;24.90;12.02;;;2.70;99.90;;;;;;5123666;28;20110;-69
2023/03/03 03:00:36;;;;;;;26.17;12.18;;;2.70;99.90;;;;;;5113758;28;20039;-69
2023/03/03 03:03:07;;;;;;;27.00;11.75;;;2.70;99.90;;;;;;5115145;28;20064;-68
2023/03/03 03:05:39;;;;;;;22.08;11.57;;;2.60;99.90;;;;;;5110197;28;20251;-68
2023/03/03 03:08:11;;;;;;;19.00;10.38;;;2.60;1.00;;;;;;5131843;28;20053;-67
2023/03/03 03:10:42;;;;;;;24.75;11.98;;;2.50;1.00;;;;;;5116966;28;20053;-68
2023/03/03 03:13:14;;;;;;;21.55;11.18;;;2.50;1.00;;;;;;5115824;28;20043;-68
2023/03/03 03:15:48;;;;;;;26.55;12.88;;;2.50;1.00;;;;;;5146017;28;20043;-65
2023/03/03 03:18:26;;;;;;;23.55;12.75;;;2.40;1.00;;;;;;5114173;28;20046;-68
2023/03/03 03:21:12;;;;;;;23.63;11.30;;;2.40;1.00;;;;;;5131285;28;20034;-69
2023/03/03 03:23:43;;;;;;;22.02;11.25;;;2.30;1.00;;;;;;5128648;28;20034;-67
2023/03/03 03:26:15;;;;;;;18.15;10.18;;;2.20;1.00;;;;;;5115123;28;20047;-68
2023/03/03 03:28:48;;;;;;;24.65;11.13;;;2.20;1.00;;;;;;5132140;28;20488;-66
2023/03/03 03:31:21;;;;;;;22.10;11.05;;;2.30;1.00;;;;;;5107108;28;20047;-66
2023/03/03 03:33:55;;;;;;;25.50;11.85;;;2.30;1.00;;;;;;5111079;29;20035;-68
2023/03/03 03:36:31;;;;;;;27.50;13.13;;;2.30;1.00;;;;;;5099275;28;20049;-66
2023/03/03 03:39:05;;;;;;;21.92;12.32;;;2.40;1.00;;;;;;5102247;28;20038;-66
2023/03/03 03:41:38;;;;;;;25.92;13.55;;;2.30;1.00;;;;;;5139085;28;20034;-67
2023/03/03 03:44:10;;;;;;;29.98;14.35;;;2.40;1.00;;;;;;5147918;28;20046;-66
2023/03/03 03:46:41;;;;;;;30.10;14.32;;;2.40;1.00;;;;;;5128847;28;20046;-67
2023/03/03 03:49:17;;;;;;;28.75;14.60;;;2.50;1.00;;;;;;5131572;28;20046;-67
2023/03/03 03:51:52;;;;;;;32.13;15.35;;;2.60;1.00;;;;;;5120358;28;20284;-69
2023/03/03 03:54:26;;;;;;;27.65;14.90;;;2.60;1.00;;;;;;5101095;28;20565;-68
2023/03/03 03:56:59;;;;;;;30.38;15.75;;;2.50;1.00;;;;;;5113419;28;20043;-68
2023/03/03 03:59:33;;;;;;;33.45;15.18;;;2.50;1.00;;;;;;5127036;28;20039;-68
2023/03/03 04:02:05;;;;;;;31.25;14.88;;;2.40;1.00;;;;;;5112380;28;20051;-67
2023/03/03 04:04:37;;;;;;;28.38;14.20;;;2.40;1.00;;;;;;5105665;28;20047;-68
2023/03/03 04:07:11;;;;;;;29.55;14.25;;;2.40;1.00;;;;;;5079073;29;20369;-66
2023/03/03 04:09:43;;;;;;;;;;;2.30;1.00;;;;;;5112533;28;20053;-67
2023/03/03 04:12:16;;;;;;;29.42;14.32;;;2.20;1.00;;;;;;5118158;28;20378;-66
2023/03/03 04:14:48;;;;;;;38.63;15.15;;;2.10;1.00;;;;;;5117599;28;20053;-69
2023/03/03 04:17:23;;;;;;;26.55;13.60;;;2.00;1.00;;;;;;5131177;28;20038;-68
2023/03/03 04:19:55;;;;;;;29.25;14.35;;;2.00;1.00;;;;;;5116809;28;20446;-68
2023/03/03 04:22:32;;;;;;;29.95;14.93;;;1.80;1.00;;;;;;5133810;28;20058;-68
2023/03/03 04:25:08;;;;;;;38.83;15.05;;;1.80;1.00;;;;;;5132476;28;20215;-68
2023/03/03 04:27:45;;;;;;;31.50;14.50;;;1.70;1.00;;;;;;5095928;29;20559;-69
2023/03/03 04:30:16;;;;;;;26.10;13.15;;;1.50;1.00;;;;;;5128566;28;20452;-67
2023/03/03 04:32:48;;;;;;;29.83;14.50;;;1.30;1.00;;;;;;5145977;28;20352;-68
2023/03/03 04:35:20;;;;;;;24.23;12.95;;;1.20;1.00;;;;;;5125062;28;20043;-68
2023/03/03 04:37:57;;;;;;;29.25;14.02;;;1.10;1.00;;;;;;5149703;28;20050;-68
2023/03/03 04:40:28;;;;;;;30.80;15.93;;;1.00;1.00;;;;;;5121501;28;20057;-67
2023/03/03 04:43:07;;;;;;;33.08;16.48;;;0.80;1.00;;;;;;5135027;28;20055;-68
2023/03/03 04:45:39;;;;;;;34.20;17.45;;;0.80;13.00;;;;;;5148916;28;20034;-67
2023/03/03 04:48:15;;;;;;;34.05;16.40;;;0.80;22.20;;;;;;5147030;28;20039;-67
2023/03/03 04:50:52;;;;;;;37.50;16.02;;;0.80;27.60;;;;;;5114763;28;20042;-68
2023/03/03 04:53:24;;;;;;;34.20;16.92;;;0.80;37.10;;;;;;5129689;28;20038;-68
2023/03/03 04:56:00;;;;;;;40.55;18.42;;;0.80;42.10;;;;;;5121192;28;20047;-68
2023/03/03 04:58:32;;;;;;;35.03;18.13;;;0.70;39.60;;;;;;5110966;28;20552;-67
2023/03/03 05:01:04;;;;;;;34.85;17.08;;;0.70;49.60;;;;;;5126316;28;20046;-68
2023/03/03 05:03:42;;;;;;;34.35;16.88;;;0.70;41.90;;;;;;5077616;28;20039;-67
2023/03/03 05:06:14;;;;;;;34.38;17.15;;;0.60;99.90;;;;;;5103600;28;20043;-68
2023/03/03 05:08:46;;;;;;;37.08;16.23;;;0.50;99.90;;;;;;5113287;28;20035;-67
2023/03/03 05:11:21;;;;;;;34.20;17.23;;;0.50;99.90;;;;;;5112316;28;20123;-66
2023/03/03 05:13:57;;;;;;;32.67;17.02;;;0.40;99.90;;;;;;5118018;28;20172;-68
2023/03/03 05:16:29;;;;;;;34.08;17.90;;;0.30;99.90;;;;;;5110300;28;20042;-67
2023/03/03 05:19:00;;;;;;;36.33;18.70;;;0.30;99.90;;;;;;5112217;28;20255;-69
2023/03/03 05:21:32;;;;;;;41.15;16.88;;;0.30;99.90;;;;;;5095083;28;20039;-67
2023/03/03 05:24:04;;;;;;;37.55;17.23;;;0.20;98.40;;;;;;5080691;28;20054;-68
2023/03/03 05:26:36;;;;;;;40.00;17.95;;;0.10;99.90;;;;;;5112609;28;20649;-66
2023/03/03 05:29:15;;;;;;;37.05;16.95;;;0.10;99.90;;;;;;5096985;28;20027;-67
2023/03/03 05:31:50;;;;;;;36.33;18.77;;;0.10;99.90;;;;;;5094394;28;20047;-68
2023/03/03 05:34:26;;;;;;;;;;;0.00;99.90;;;;;;5096390;28;20034;-68
2023/03/03 05:37:00;;;;;;;32.83;16.38;;;0.00;99.90;;;;;;5112145;28;19922;-68
2023/03/03 05:39:34;;;;;;;41.15;19.42;;;-0.10;99.90;;;;;;5112391;28;20038;-66
2023/03/03 05:42:10;;;;;;;34.75;17.92;;;-0.10;99.90;;;;;;5145202;28;20275;-67
2023/03/03 05:44:41;;;;;;;41.90;18.52;;;-0.20;99.90;;;;;;5127532;28;20037;-68
2023/03/03 05:47:13;;;;;;;41.40;18.58;;;-0.20;99.90;;;;;;5127141;28;20049;-68
2023/03/03 05:49:47;;;;;;;39.38;18.20;;;-0.10;99.90;;;;;;5145146;28;20051;-67
2023/03/03 05:52:19;;;;;;;32.78;16.52;;;0.10;99.90;;;;;;5130966;28;20043;-69
2023/03/03 05:54:52;;;;;;;33.33;16.25;;;0.20;99.90;;;;;;5096490;28;20040;-68
2023/03/03 05:57:24;;;;;;;30.98;16.05;;;0.20;99.90;;;;;;5125252;28;20370;-69
2023/03/03 05:59:56;;;;;;;41.25;18.25;;;0.30;99.90;;;;;;5115554;28;20348;-67
2023/03/03 06:02:27;;;;;;;36.38;17.63;;;0.40;99.90;;;;;;5113248;28;20262;-68
2023/03/03 06:04:58;;;;;;;40.35;18.70;;;0.40;99.90;;;;;;5097891;28;20375;-68
2023/03/03 06:07:31;;;;;;;42.65;19.40;;;0.50;99.90;;;;;;5094684;28;20051;-69
2023/03/03 06:10:08;;;;;;;38.20;18.58;;;0.70;99.90;;;;;;5132271;28;20566;-67
2023/03/03 06:12:47;;;;;;;37.08;16.73;;;0.80;99.80;;;;;;5117182;28;20039;-67
2023/03/03 06:16:37;;;;;;;;;;;1.10;99.90;;;;;;5119308;28;20031;-66
2023/03/03 06:19:40;;;;;;;40.08;18.55;;;1.20;1.00;;;;;;5127036;28;19929;-69
2023/03/03 06:22:21;;;;;;;47.20;18.40;;;1.50;1.00;;;;;;5130191;28;20045;-68
2023/03/03 06:24:53;;;;;;;43.30;18.77;;;1.60;1.00;;;;;;5128939;28;20030;-67
2023/03/03 06:27:24;;;;;;;44.30;16.40;;;1.80;1.00;;;;;;5096869;28;20061;-67
2023/03/03 06:30:03;;;;;;;40.47;16.70;;;2.10;1.00;;;;;;5147443;28;20053;-68
2023/03/03 06:32:36;;;;;;;40.40;19.95;;;2.40;1.00;;;;;;5113722;28;20080;-68
2023/03/03 06:35:12;;;;;;;41.30;17.52;;;2.70;1.00;;;;;;5131585;28;20042;-69
2023/03/03 06:37:44;;;;;;;37.38;18.77;;;3.00;1.00;;;;;;5112993;28;20081;-69
2023/03/03 06:40:16;;;;;;;39.25;18.38;;;3.20;1.00;;;;;;5100623;28;20122;-69
2023/03/03 06:42:50;;;;;;;44.58;18.08;;;3.50;1.00;;;;;;5116020;28;20045;-68
2023/03/03 06:45:25;;;;;;;37.60;18.73;;;3.80;1.00;;;;;;5130544;28;20047;-69
2023/03/03 06:47:56;;;;;;;38.72;18.02;;;4.10;1.00;;;;;;5145360;28;20043;-68
2023/03/03 06:50:28;;;;;;;31.80;16.38;;;4.50;1.00;;;;;;5102100;28;20034;-67
2023/03/03 06:53:18;;;;;;;41.30;18.38;;;4.80;1.00;;;;;;5118834;28;20050;-67
2023/03/03 06:55:54;;;;;;;33.25;16.70;;;5.10;1.00;;;;;;5130751;28;20050;-68
2023/03/03 06:58:32;;;;;;;30.13;15.35;;;5.30;2.60;;;;;;5101997;28;20042;-68
2023/03/03 07:01:16;;;;;;;42.80;18.38;;;5.30;17.50;;;;;;5131956;28;20034;-67
2023/03/03 07:03:50;;;;;;;37.15;16.00;;;5.70;22.10;;;;;;5117693;28;20050;-67
2023/03/03 07:06:30;;;;;;;37.13;17.73;;;5.90;52.80;;;;;;5142673;28;20060;-69
2023/03/03 07:09:20;;;;;;;35.80;15.77;;;6.10;76.70;;;;;;5147442;28;20047;-69
2023/03/03 07:12:05;;;;;;;27.90;14.90;;;6.30;93.20;;;;;;5096738;29;20378;-70
2023/03/03 07:14:46;;;;;;;29.52;15.10;;;6.20;1.00;;;;;;5097526;29;20043;-67
2023/03/03 07:17:26;;;;;;;34.30;16.60;;;6.40;1.00;;;;;;5120642;28;20423;-68
2023/03/03 07:20:00;;;;;;;32.88;16.20;;;6.50;99.90;;;;;;5117545;28;20045;-68
2023/03/03 07:22:34;;;;;;;30.38;16.48;;;6.60;99.90;;;;;;5147376;28;20380;-69
2023/03/03 07:25:36;;;;;;;24.38;12.98;;;6.80;99.90;;;;;;5102064;28;20508;-71
2023/03/03 07:28:30;;;;;;;26.35;12.93;;;7.00;1.00;;;;;;5131530;28;20044;-68
2023/03/03 07:31:27;;;;;;;23.63;13.18;;;7.20;1.00;;;;;;5120794;28;20038;-68
2023/03/03 07:34:00;;;;;;;25.27;13.55;;;7.20;99.90;;;;;;5141088;28;20039;-70
2023/03/03 07:36:37;;;;;;;26.83;13.15;;;7.40;1.00;;;;;;5104063;28;20323;-69
2023/03/03 07:39:41;;;;;;;27.98;14.07;;;7.60;1.00;;;;;;5101735;28;20045;-68
2023/03/03 07:42:32;;;;;;;34.65;17.02;;;7.70;99.90;;;;;;5121446;28;20026;-70
2023/03/03 07:45:24;;;;;;;37.20;18.00;;;7.90;99.90;;;;;;5126959;28;20520;-69
2023/03/03 07:48:12;;;;;;;36.15;18.42;;;8.00;20.20;;;;;;5133305;28;20515;-68
2023/03/03 07:50:44;;;;;;;37.33;19.02;;;7.90;1.00;;;;;;5116509;28;20220;-70
2023/03/03 07:53:26;;;;;;;43.03;20.02;;;7.40;99.90;;;;;;5113821;28;20045;-68
2023/03/03 07:55:57;;;;;;;38.97;20.00;;;7.40;1.00;;;;;;5139337;28;20030;-68
2023/03/03 07:58:44;;;;;;;38.13;20.05;;;7.30;99.90;;;;;;5114009;28;20137;-68
2023/03/03 08:01:41;;;;;;;36.60;19.38;;;6.90;99.90;;;;;;5095830;28;20042;-68
2023/03/03 08:04:43;;;;;;;37.30;19.08;;;6.80;1.00;;;;;;5121705;28;20125;-68
2023/03/03 08:07:17;;;;;;;40.92;19.42;;;6.40;99.90;;;;;;5151857;28;20221;-67
2023/03/03 08:09:57;;;;;;;37.53;19.60;;;5.90;1.00;;;;;;5133951;28;20060;-69
2023/03/03 08:12:41;;;;;;;38.05;18.17;;;5.80;1.00;;;;;;5146870;28;20026;-69
2023/03/03 08:15:20;;;;;;;37.78;18.23;;;5.90;1.00;;;;;;5113035;28;20294;-68
2023/03/03 08:17:56;;;;;;;32.08;16.38;;;5.90;1.00;;;;;;5115392;28;20046;-69
2023/03/03 08:20:34;;;;;;;34.08;17.60;;;5.80;1.00;;;;;;5098778;28;20192;-69
2023/03/03 08:23:08;;;;;;;38.17;16.52;;;5.80;1.00;;;;;;5115922;28;20057;-67
2023/03/03 08:25:41;;;;;;;38.42;18.20;;;5.70;1.00;;;;;;5138881;28;20053;-67
2023/03/03 08:28:13;;;;;;;34.20;16.58;;;5.70;1.00;;;;;;5098624;28;20066;-69
2023/03/03 08:30:48;;;;;;;34.30;17.27;;;5.90;1.00;;;;;;5127555;28;20052;-70
2023/03/03 08:33:19;;;;;;;32.53;16.70;;;6.00;1.00;;;;;;5115057;28;20050;-66
2023/03/03 08:35:51;;;;;;;34.30;17.98;;;6.10;1.00;;;;;;5129703;28;20376;-66
2023/03/03 08:38:23;;;;;;;36.42;17.80;;;6.20;1.00;;;;;;5124853;28;20412;-67
2023/03/03 08:40:59;;;;;;;30.60;17.45;;;6.30;1.00;;;;;;5141597;28;20494;-68
2023/03/03 08:43:34;;;;;;;39.70;18.23;;;6.30;99.90;;;;;;5130041;28;20039;-68
2023/03/03 08:46:08;;;;;;;35.67;18.17;;;6.50;99.90;;;;;;5094358;28;20335;-69
2023/03/03 08:48:45;;;;;;;33.40;16.52;;;6.90;99.90;;;;;;5128593;28;20347;-68
2023/03/03 08:51:18;;;;;;;32.17;16.80;;;7.10;99.90;;;;;;5112390;28;20237;-70
2023/03/03 08:53:53;;;;;;;35.08;17.63;;;7.50;99.90;;;;;;5112298;28;20046;-70
2023/03/03 08:56:27;;;;;;;;;;;7.70;5.60;;;;;;5106468;28;20324;-68
2023/03/03 08:58:58;;;;;;;32.00;17.15;;;7.90;1.00;;;;;;5127599;28;19945;-68
2023/03/03 09:01:31;;;;;;;37.90;18.70;;;7.80;1.00;;;;;;5095294;28;20047;-70
2023/03/03 09:04:03;;;;;;;35.15;18.65;;;7.90;1.00;;;;;;5149285;28;20041;-69
2023/03/03 09:06:34;;;;;;;34.22;16.85;;;8.00;1.00;;;;;;5138776;28;20076;-69
2023/03/03 09:09:06;;;;;;;30.55;17.75;;;8.00;1.00;;;;;;5132866;28;20112;-67
2023/03/03 09:11:37;;;;;;;42.70;19.35;;;8.20;99.90;;;;;;5132414;28;20050;-66
2023/03/03 09:14:17;;;;;;;33.60;18.17;;;8.00;99.90;;;;;;5116130;28;20037;-65
2023/03/03 09:16:55;;;;;;;39.28;20.17;;;8.00;99.90;;;;;;5114351;28;20094;-66
2023/03/03 09:19:33;;;;;;;34.95;16.55;;;8.00;99.90;;;;;;5133221;28;20045;-69
2023/03/03 09:22:24;;;;;;;37.08;19.70;;;8.10;99.90;;;;;;5116974;28;20403;-69
2023/03/03 09:25:01;;;;;;;36.08;17.98;;;8.40;99.90;;;;;;5129645;28;20062;-69
2023/03/03 09:27:39;;;;;;;34.25;18.13;;;8.30;99.90;;;;;;5129572;28;20343;-69
2023/03/03 09:30:39;;;;;;;32.40;17.85;;;8.60;99.90;;;;;;5126136;28;20260;-69
2023/03/03 09:33:44;;;;;;;37.80;17.55;;;8.90;68.50;;;;;;5114192;28;20213;-68
2023/03/03 09:36:26;;;;;;;38.53;18.75;;;9.20;1.00;;;;;;5114038;28;20284;-68
2023/03/03 09:38:58;;;;;;;33.03;18.20;;;9.40;1.00;;;;;;5129249;28;20259;-69
2023/03/03 09:42:03;;;;;;;33.00;17.27;;;9.30;1.00;;;;;;5113775;28;20042;-70
2023/03/03 09:44:49;;;;;;;32.90;16.85;;;9.20;1.00;;;;;;5131000;28;20039;-70
2023/03/03 09:47:53;;;;;;;29.55;16.25;;;9.30;1.00;;;;;;5126562;28;20076;-69
2023/03/03 09:51:11;;;;;;;31.23;16.27;;;9.10;1.00;;;;;;5125056;28;20364;-68
2023/03/03 09:54:21;;;;;;;32.95;17.17;;;9.20;1.00;;;;;;5093634;29;20053;-71
2023/03/03 09:57:19;;;;;;;33.05;16.85;;;9.30;1.00;;;;;;5096698;28;20164;-70
2023/03/03 10:00:15;;;;;;;33.42;17.27;;;9.40;99.90;;;;;;5112898;28;20572;-70
2023/03/03 10:03:35;;;;;;;36.75;16.55;;;9.40;99.90;;;;;;5116542;28;20046;-68
2023/03/03 10:06:45;;;;;;;33.75;17.83;;;9.40;99.90;;;;;;5156128;28;20400;-67
2023/03/03 10:09:38;;;;;;;29.52;15.52;;;9.40;99.90;;;;;;5144859;28;20057;-69
2023/03/03 10:12:35;;;;;;;28.50;15.65;;;9.60;99.90;;;;;;5134255;28;20240;-71
2023/03/03 10:15:39;;;;;;;31.13;16.33;;;9.70;99.90;;;;;;5127770;28;20039;-69
2023/03/03 10:18:36;;;;;;;25.17;14.63;;;9.70;59.40;;;;;;5147072;28;20085;-69
2023/03/03 10:21:21;;;;;;;31.63;15.88;;;10.20;1.00;;;;;;5117530;28;20041;-70
2023/03/03 10:24:14;;;;;;;30.02;15.60;;;10.30;1.00;;;;;;5118178;28;20119;-68
2023/03/03 10:27:10;;;;;;;33.97;15.77;;;10.10;1.00;;;;;;5144737;28;20031;-71
2023/03/03 10:30:38;;;;;;;30.92;14.77;;;10.30;1.00;;;;;;5134461;28;20280;-70
2023/03/03 10:33:45;;;;;;;31.30;16.00;;;11.00;1.00;;;;;;5089732;28;20063;-69
2023/03/03 10:36:34;;;;;;;30.98;15.43;;;11.80;1.00;;;;;;5132649;28;20057;-68
2023/03/03 10:39:35;;;;;;;31.10;16.10;;;12.10;1.00;;;;;;5135400;28;20053;-70
2023/03/03 10:42:19;;;;;;;29.35;15.55;;;12.30;1.00;;;;;;5132852;28;20335;-70
2023/03/03 10:44:51;;;;;;;26.95;15.27;;;13.10;1.00;;;;;;5145753;28;20504;-70
2023/03/03 10:47:53;;;;;;;26.63;14.30;;;13.60;1.00;;;;;;5143977;28;20035;-70
2023/03/03 10:51:01;;;;;;;27.27;14.93;;;14.00;1.00;;;;;;5128384;28;20031;-70
2023/03/03 10:53:58;;;;;;;26.55;14.73;;;14.30;1.00;;;;;;5096195;29;20047;-68
2023/03/03 10:56:37;;;;;;;25.63;15.63;;;14.30;1.00;;;;;;5125558;28;20034;-70
2023/03/03 10:59:47;;;;;;;25.45;14.27;;;14.00;99.90;;;;;;5115838;28;20037;-68
2023/03/03 11:02:45;;;;;;;22.23;12.75;;;14.30;99.90;;;;;;5129476;28;20030;-69
2023/03/03 11:05:49;;;;;;;29.98;13.88;;;14.20;1.00;;;;;;5153191;28;20060;-69
2023/03/03 11:08:55;;;;;;;25.27;13.35;;;14.20;99.90;;;;;;5114472;28;20061;-65
2023/03/03 11:11:43;;;;;;;24.90;14.80;;;14.20;1.00;;;;;;5128508;28;20041;-68
2023/03/03 11:14:40;;;;;;;22.10;13.30;;;14.30;99.90;;;;;;5131546;28;20060;-68
2023/03/03 11:17:41;;;;;;;21.77;13.45;;;14.00;99.90;;;;;;5095768;28;20049;-70
2023/03/03 11:20:37;;;;;;;23.05;13.02;;;14.60;99.90;;;;;;5112520;28;20242;-69
2023/03/03 11:24:17;;;;;;;18.50;13.02;;;14.70;99.90;;;;;;5094942;29;20049;-68
2023/03/03 11:27:29;;;;;;;30.75;16.20;;;14.40;99.90;;;;;;5107288;28;20053;-69
2023/03/03 11:30:28;;;;;;;29.85;15.35;;;14.50;99.90;;;;;;5111491;28;20041;-68
2023/03/03 11:33:18;;;;;;;32.80;17.88;;;15.40;99.90;;;;;;5112910;28;20038;-69
2023/03/03 11:36:16;;;;;;;37.30;21.88;;;15.60;99.90;;;;;;5132065;28;20042;-69
2023/03/03 11:38:58;;;;;;;23.73;13.18;;;15.80;99.90;;;;;;5131213;28;20247;-69
2023/03/03 11:41:52;;;;;;;20.92;12.35;;;16.30;99.90;;;;;;5099784;28;20038;-70
2023/03/03 11:44:46;;;;;;;21.75;12.77;;;16.00;99.90;;;;;;5132988;28;20035;-67
2023/03/03 11:47:41;;;;;;;25.23;14.20;;;15.60;99.90;;;;;;5097923;28;20047;-66
2023/03/03 11:50:27;;;;;;;25.67;14.35;;;15.60;99.90;;;;;;5134317;28;20065;-69
2023/03/03 11:53:26;;;;;;;22.25;13.45;;;14.00;97.90;;;;;;5141863;28;20057;-68
2023/03/03 11:56:29;;;;;;;25.48;13.57;;;14.60;99.90;;;;;;5131835;28;20037;-69
2023/03/03 11:59:40;;;;;;;25.58;13.45;;;15.00;91.10;;;;;;5113219;28;20051;-69
2023/03/03 12:02:42;;;;;;;24.02;13.55;;;15.10;88.80;;;;;;5144445;28;20331;-68
2023/03/03 12:05:28;;;;;;;22.38;13.77;;;15.40;91.30;;;;;;5083609;28;20069;-69
2023/03/03 12:08:03;;;;;;;23.02;14.15;;;16.10;99.90;;;;;;5126670;28;20026;-69
2023/03/03 12:11:05;;;;;;;20.73;12.93;;;16.30;68.40;;;;;;5139524;28;20051;-69
2023/03/03 12:14:15;;;;;;;21.92;13.02;;;15.90;41.50;;;;;;5136496;28;20145;-68
2023/03/03 12:17:20;;;;;;;25.15;12.57;;;15.80;21.60;;;;;;5104762;28;20511;-68
2023/03/03 12:20:12;;;;;;;25.63;12.85;;;15.50;18.30;;;;;;5148448;28;20088;-67
2023/03/03 12:23:35;;;;;;;24.75;13.57;;;15.30;89.10;;;;;;5115195;28;20041;-66
2023/03/03 12:26:25;;;;;;;23.48;13.20;;;15.40;99.90;;;;;;5090196;29;20336;-67
2023/03/03 12:29:04;;;;;;;26.17;14.15;;;16.10;99.90;;;;;;5064542;29;20047;-68
2023/03/03 12:31:47;;;;;;;22.77;13.00;;;16.00;22.50;;;;;;5040875;29;20078;-69
2023/03/03 12:34:41;;;;;;;25.35;14.35;;;16.60;1.00;;;;;;5071710;29;20054;-68
2023/03/03 12:37:33;;;;;;;22.95;13.85;;;16.70;1.00;;;;;;5073050;29;20039;-69
2023/03/03 12:40:24;;;;;;;25.70;13.55;;;16.50;1.00;;;;;;5076879;29;20055;-69
2023/03/03 12:43:04;;;;;;;20.45;13.52;;;16.80;1.00;;;;;;5050210;29;20048;-69
2023/03/03 12:45:53;;;;;;;23.15;13.57;;;15.60;1.00;;;;;;5065795;29;20046;-69
2023/03/03 12:48:43;;;;;;;21.45;12.65;;;15.20;1.00;;;;;;5076373;29;20082;-69
2023/03/03 12:51:43;;;;;;;20.88;12.10;;;15.90;1.00;;;;;;5081716;29;20333;-68
2023/03/03 12:54:39;;;;;;;21.02;12.68;;;15.40;1.00;;;;;;5079021;29;20149;-68
2023/03/03 12:57:18;;;;;;;22.77;13.25;;;15.40;1.00;;;;;;5106411;29;20042;-68
2023/03/03 12:59:59;;;;;;;24.10;13.65;;;15.40;1.00;;;;;;5078630;29;20054;-68
2023/03/03 13:02:55;;;;;;;21.67;13.15;;;14.50;1.00;;;;;;5107345;28;20047;-67
2023/03/03 13:05:54;;;;;;;22.40;12.75;;;15.20;1.00;;;;;;5095863;28;20058;-67
2023/03/03 13:09:05;;;;;;;23.42;14.40;;;15.20;1.00;;;;;;5132706;28;20053;-67
2023/03/03 13:12:10;;;;;;;21.05;12.85;;;17.00;1.00;;;;;;5119116;28;20050;-67
2023/03/03 13:15:01;;;;;;;25.87;13.60;;;16.90;1.00;;;;;;5126708;28;20406;-68
2023/03/03 13:18:02;;;;;;;21.98;12.23;;;17.70;1.00;;;;;;5110180;28;20276;-68
2023/03/03 13:20:45;;;;;;;23.17;11.98;;;17.50;1.00;;;;;;5126611;28;20383;-68
2023/03/03 13:23:37;;;;;;;20.45;12.35;;;16.90;1.00;;;;;;5094451;29;20038;-67
2023/03/03 13:26:34;;;;;;;19.23;11.85;;;16.90;1.00;;;;;;5113229;28;20058;-67
2023/03/03 13:29:24;;;;;;;19.02;12.32;;;16.50;1.00;;;;;;5133106;28;20043;-69
2023/03/03 13:32:15;;;;;;;21.58;13.10;;;15.40;1.00;;;;;;5126645;28;20045;-67
2023/03/03 13:35:42;;;;;;;24.48;13.15;;;15.80;1.00;;;;;;5131673;28;20255;-69
2023/03/03 13:38:45;;;;;;;19.58;12.30;;;16.00;1.00;;;;;;5118351;28;20046;-69
2023/03/03 13:41:30;;;;;;;20.58;12.25;;;15.90;1.00;;;;;;5114109;28;20242;-66
2023/03/03 13:44:30;;;;;;;18.92;12.07;;;15.90;1.00;;;;;;5100518;28;20038;-66
2023/03/03 13:47:13;;;;;;;23.80;13.65;;;15.70;60.70;;;;;;5128034;28;20030;-68
2023/03/03 13:50:00;;;;;;;24.00;12.98;;;16.40;8.30;;;;;;5126798;28;20570;-68
2023/03/03 13:52:41;;;;;;;22.23;14.25;;;17.30;24.90;;;;;;5095422;28;20045;-68
2023/03/03 13:56:08;;;;;;;22.65;13.98;;;16.80;14.00;;;;;;5097623;28;20038;-69
2023/03/03 13:59:06;;;;;;;21.17;12.68;;;16.40;1.00;;;;;;5090790;29;20066;-68
2023/03/03 14:02:01;;;;;;;21.17;12.68;;;16.40;1.00;;;;;;5056849;28;20053;-65
2023/03/03 14:04:47;;;;;;;22.15;12.30;;;16.50;1.00;;;;;;5082074;29;20051;-67